Time;durP1;ratioP1;P1;durP2;ratioP2;P2;SDS_P1;SDS_P2;PMS_P1;PMS_P2;Temp;Humidity;BMP_temperature;BMP_pressure;BME280_temperature;BME280_humidity;BME280_pressure;Samples;Min_cycle;Max_cycle;Signal;HPM_P1;HPM_P2
2024/03/14 00:00:41;;;;;;;13.45;7.10;;;;;;;9.97;100.00;101429.47;6086709;19;20011;-75
2024/03/14 00:02:48;;;;;;;12.75;7.53;;;;;;;9.91;100.00;101437.53;6091655;19;20015;-75
2024/03/14 00:04:53;;;;;;;12.18;7.72;;;;;;;9.90;100.00;101431.44;6089371;19;20007;-74
2024/03/14 00:07:01;;;;;;;12.57;6.93;;;;;;;9.85;100.00;101428.06;6090315;19;20042;-74
2024/03/14 00:09:08;;;;;;;11.90;6.70;;;;;;;9.86;100.00;101433.25;6090196;19;20368;-75
2024/03/14 00:11:13;;;;;;;13.23;7.30;;;;;;;9.77;100.00;101430.03;6090569;19;20020;-75
2024/03/14 00:13:18;;;;;;;11.45;6.80;;;;;;;9.85;100.00;101430.69;6091233;19;20013;-75
2024/03/14 00:15:26;;;;;;;13.60;7.45;;;;;;;9.75;100.00;101430.09;6090104;19;20078;-75
2024/03/14 00:17:32;;;;;;;14.18;6.70;;;;;;;9.75;100.00;101431.84;6089767;19;20010;-75
2024/03/14 00:19:37;;;;;;;13.27;7.57;;;;;;;9.70;100.00;101428.50;6091967;19;20007;-74
2024/03/14 00:21:41;;;;;;;11.65;6.38;;;;;;;9.70;100.00;101431.97;6090182;19;20022;-74
2024/03/14 00:23:49;;;;;;;12.75;6.43;;;;;;;9.69;100.00;101432.88;6086847;19;20003;-73
2024/03/14 00:25:54;;;;;;;12.95;7.00;;;;;;;9.64;100.00;101430.38;6091554;19;20070;-74
2024/03/14 00:27:59;;;;;;;11.32;6.05;;;;;;;9.66;100.00;101431.22;6090372;19;20029;-74
2024/03/14 00:30:11;;;;;;;11.02;6.47;;;;;;;9.65;100.00;101437.34;6091739;19;20025;-74
2024/03/14 00:32:16;;;;;;;11.25;6.40;;;;;;;9.70;100.00;101433.75;6089404;19;20002;-74
2024/03/14 00:34:21;;;;;;;12.18;6.90;;;;;;;9.62;100.00;101431.31;6090707;19;20003;-74
2024/03/14 00:36:26;;;;;;;12.20;6.45;;;;;;;9.62;100.00;101426.06;6091334;19;20387;-74
2024/03/14 00:38:32;;;;;;;13.65;6.88;;;;;;;9.63;100.00;101428.63;6086670;19;20024;-74
2024/03/14 00:40:40;;;;;;;10.52;6.07;;;;;;;9.59;100.00;101427.03;6088562;19;20376;-75
2024/03/14 00:42:49;;;;;;;10.40;6.50;;;;;;;9.57;100.00;101426.19;6091392;19;20748;-74
2024/03/14 00:44:52;;;;;;;10.57;6.07;;;;;;;9.50;100.00;101424.63;6091168;19;20146;-74
2024/03/14 00:46:57;;;;;;;11.30;6.68;;;;;;;9.50;100.00;101423.78;6091103;19;20025;-75
2024/03/14 00:49:02;;;;;;;9.90;5.75;;;;;;;9.66;100.00;101422.44;6089637;19;20003;-75
2024/03/14 00:51:05;;;;;;;11.88;6.30;;;;;;;9.65;100.00;101413.72;6089792;19;20010;-75
2024/03/14 00:53:11;;;;;;;10.93;5.85;;;;;;;9.54;100.00;101413.16;6086555;19;20554;-75
2024/03/14 00:55:16;;;;;;;10.63;5.85;;;;;;;9.58;100.00;101425.28;6088230;19;20017;-76
2024/03/14 00:57:24;;;;;;;9.73;5.90;;;;;;;9.59;100.00;101418.28;6091073;19;20013;-74
2024/03/14 00:59:29;;;;;;;10.57;5.55;;;;;;;9.58;100.00;101411.31;6090718;19;20038;-76
2024/03/14 01:01:35;;;;;;;9.18;5.93;;;;;;;9.55;100.00;101414.00;6090207;19;20010;-74
2024/03/14 01:03:41;;;;;;;10.07;6.35;;;;;;;9.59;100.00;101416.53;6090279;19;20070;-76
2024/03/14 01:05:46;;;;;;;11.48;5.60;;;;;;;9.59;100.00;101416.53;6089663;19;20010;-73
2024/03/14 01:07:54;;;;;;;12.60;6.28;;;;;;;9.58;100.00;101406.91;6090486;19;20034;-73
2024/03/14 01:09:56;;;;;;;10.85;5.43;;;;;;;9.53;100.00;101410.56;6088841;19;20206;-73
2024/03/14 01:12:01;;;;;;;9.93;5.57;;;;;;;9.51;100.00;101405.38;6090276;19;20007;-74
2024/03/14 01:14:12;;;;;;;10.57;6.10;;;;;;;9.48;100.00;101405.47;6090123;19;20351;-73
2024/03/14 01:16:17;;;;;;;9.25;5.18;;;;;;;9.54;100.00;101407.91;6088148;19;20090;-74
2024/03/14 01:18:24;;;;;;;10.82;6.18;;;;;;;9.63;100.00;101406.78;6090299;19;20010;-74
2024/03/14 01:20:29;;;;;;;10.27;5.72;;;;;;;9.60;100.00;101402.50;6087359;19;19998;-76
2024/03/14 01:22:36;;;;;;;11.35;5.97;;;;;;;9.50;100.00;101408.88;6087926;19;20039;-75
2024/03/14 01:24:38;;;;;;;8.65;5.60;;;;;;;9.51;100.00;101412.41;6085891;19;20011;-75
2024/03/14 01:26:44;;;;;;;10.93;6.32;;;;;;;9.55;100.00;101408.78;6089131;19;20007;-73
2024/03/14 01:28:50;;;;;;;12.02;5.70;;;;;;;9.56;100.00;101400.00;6090181;19;20024;-74
2024/03/14 01:30:58;;;;;;;8.98;5.45;;;;;;;9.48;100.00;101402.84;6089305;19;20496;-74
2024/03/14 01:33:03;;;;;;;10.90;6.25;;;;;;;9.49;100.00;101404.56;6089842;19;20015;-74
2024/03/14 01:35:09;;;;;;;9.90;5.95;;;;;;;9.51;100.00;101396.66;6088552;19;20010;-73
2024/03/14 01:37:15;;;;;;;10.98;5.82;;;;;;;9.38;100.00;101391.72;6089188;19;20038;-73
2024/03/14 01:39:21;;;;;;;11.27;5.63;;;;;;;9.35;100.00;101386.56;6089893;19;20034;-73
2024/03/14 01:41:26;;;;;;;10.82;6.00;;;;;;;9.30;100.00;101392.84;6088061;19;20009;-74
2024/03/14 01:43:31;;;;;;;10.32;5.57;;;;;;;9.34;100.00;101389.22;6088961;19;20014;-75
2024/03/14 01:45:36;;;;;;;11.60;5.85;;;;;;;9.34;100.00;101383.97;6088395;19;20007;-75
2024/03/14 01:47:44;;;;;;;10.73;5.72;;;;;;;9.48;100.00;101373.97;6087847;19;19999;-74
2024/03/14 01:49:47;;;;;;;11.25;5.70;;;;;;;9.37;100.00;101384.78;6088596;19;20011;-74
2024/03/14 01:51:52;;;;;;;12.30;6.18;;;;;;;9.34;100.00;101370.84;6087739;19;20776;-74
2024/03/14 01:53:57;;;;;;;10.32;5.18;;;;;;;9.41;100.00;101369.78;6084330;19;20006;-73
2024/03/14 01:56:03;;;;;;;14.55;6.05;;;;;;;9.37;100.00;101373.41;6087375;19;20017;-75
2024/03/14 01:58:12;;;;;;;11.90;5.72;;;;;;;9.41;100.00;101377.66;6089478;19;20044;-74
2024/03/14 02:00:18;;;;;;;10.25;6.13;;;;;;;9.48;100.00;101375.72;6087513;19;20006;-76
2024/03/14 02:02:27;;;;;;;10.35;5.72;;;;;;;9.45;100.00;101371.41;6090515;19;20529;-75
2024/03/14 02:04:44;;;;;;;9.82;5.63;;;;;;;9.37;100.00;101368.16;6091912;19;20034;-74
2024/03/14 02:06:54;;;;;;;10.05;5.85;;;;;;;9.39;100.00;101366.34;5987905;19;2004677;-73
2024/03/14 02:09:00;;;;;;;9.00;6.57;;;;;;;9.40;100.00;101368.06;6088559;19;20407;-73
2024/03/14 02:11:05;;;;;;;9.85;5.25;;;;;;;9.29;100.00;101357.84;6090739;19;20103;-74
2024/03/14 02:13:10;;;;;;;10.10;6.00;;;;;;;9.36;100.00;101361.19;6091730;19;20023;-74
2024/03/14 02:15:15;;;;;;;12.43;6.28;;;;;;;9.33;100.00;101356.03;6088485;19;20034;-73
2024/03/14 02:17:21;;;;;;;9.65;5.40;;;;;;;9.32;100.00;101349.03;6090176;19;20014;-73
2024/03/14 02:19:26;;;;;;;8.82;5.30;;;;;;;9.41;100.00;101351.44;6088631;19;20011;-73
2024/03/14 02:21:33;;;;;;;9.15;5.20;;;;;;;9.36;100.00;101335.81;6091102;19;20011;-73
2024/03/14 02:23:40;;;;;;;9.50;5.28;;;;;;;9.28;100.00;101337.78;6087511;19;20571;-74
2024/03/14 02:25:45;;;;;;;10.43;5.75;;;;;;;9.33;100.00;101337.69;6089891;19;20036;-74
2024/03/14 02:27:52;;;;;;;9.95;5.88;;;;;;;9.30;100.00;101332.50;6088796;19;20595;-75
2024/03/14 02:29:57;;;;;;;10.35;4.70;;;;;;;9.34;100.00;101331.50;6090871;19;20015;-75
2024/03/14 02:32:03;;;;;;;11.23;5.88;;;;;;;9.24;100.00;101330.91;6089133;19;20028;-76
2024/03/14 02:34:10;;;;;;;8.63;5.63;;;;;;;9.17;100.00;101324.97;6088964;19;20361;-75
2024/03/14 02:36:18;;;;;;;10.25;6.00;;;;;;;9.11;100.00;101325.16;6087550;19;20036;-75
2024/03/14 02:38:24;;;;;;;9.45;5.20;;;;;;;9.07;100.00;101322.63;6089938;19;20045;-75
2024/03/14 02:40:32;;;;;;;9.55;5.35;;;;;;;9.08;100.00;101309.47;6089498;19;20082;-75
2024/03/14 02:42:38;;;;;;;11.98;5.80;;;;;;;9.06;100.00;101319.16;6088359;19;20034;-75
2024/03/14 02:44:40;;;;;;;10.90;5.70;;;;;;;9.06;100.00;101320.91;6087750;19;20003;-75
2024/03/14 02:46:45;;;;;;;9.25;5.43;;;;;;;8.98;100.00;101321.13;6088233;19;20038;-74
2024/03/14 02:48:52;;;;;;;10.55;5.85;;;;;;;8.96;100.00;101322.91;6084660;19;20037;-73
2024/03/14 02:50:54;;;;;;;10.55;5.80;;;;;;;8.92;100.00;101327.38;6088029;19;20014;-75
2024/03/14 02:53:00;;;;;;;10.90;5.65;;;;;;;8.96;100.00;101325.53;6082100;19;20047;-73
2024/03/14 02:55:02;;;;;;;10.57;5.85;;;;;;;8.92;100.00;101326.50;6085589;19;20078;-75
2024/03/14 02:57:14;;;;;;;10.18;6.10;;;;;;;9.01;100.00;101321.03;6086044;19;20024;-73
2024/03/14 02:59:23;;;;;;;9.02;5.28;;;;;;;8.95;100.00;101329.03;6086463;19;20015;-74
2024/03/14 03:01:28;;;;;;;11.35;6.28;;;;;;;8.91;100.00;101316.94;6086208;19;20770;-74
2024/03/14 03:03:33;;;;;;;14.50;6.43;;;;;;;8.92;100.00;101322.13;6086564;19;20006;-74
2024/03/14 03:05:38;;;;;;;10.85;5.68;;;;;;;8.89;100.00;101313.50;6085920;19;20010;-74
2024/03/14 03:07:43;;;;;;;14.02;7.28;;;;;;;8.86;100.00;101308.34;6087194;19;20010;-75
2024/03/14 03:09:49;;;;;;;12.45;6.32;;;;;;;8.85;100.00;101306.63;6086247;19;20014;-75
2024/03/14 03:11:55;;;;;;;14.68;6.03;;;;;;;8.86;100.00;101300.47;6083754;19;20552;-75
2024/03/14 03:14:05;;;;;;;11.23;5.90;;;;;;;8.89;100.00;101301.25;6087084;19;20006;-75
2024/03/14 03:16:10;;;;;;;13.32;6.38;;;;;;;8.94;100.00;101295.88;6086769;19;20002;-74
2024/03/14 03:18:13;;;;;;;13.32;7.13;;;;;;;8.85;100.00;101296.13;6084802;19;20007;-74
2024/03/14 03:20:18;;;;;;;13.02;6.78;;;;;;;8.86;100.00;101301.31;6086717;19;20454;-74
2024/03/14 03:22:28;;;;;;;11.38;6.72;;;;;;;8.76;100.00;101291.97;6086191;19;20357;-74
2024/03/14 03:24:32;;;;;;;11.52;6.30;;;;;;;8.76;100.00;101307.69;6085528;19;20078;-74
2024/03/14 03:26:38;;;;;;;15.10;6.63;;;;;;;8.72;100.00;101306.94;6083247;19;20007;-75
2024/03/14 03:28:40;;;;;;;13.05;6.65;;;;;;;8.70;100.00;101306.09;6086560;19;20017;-74
2024/03/14 03:30:48;;;;;;;11.95;6.55;;;;;;;8.70;100.00;101302.63;6085499;19;19998;-75
2024/03/14 03:32:50;;;;;;;11.10;6.55;;;;;;;8.76;100.00;101299.84;6082765;19;20014;-74
2024/03/14 03:34:58;;;;;;;11.15;7.07;;;;;;;8.73;100.00;101294.69;6085064;19;20007;-75
2024/03/14 03:37:01;;;;;;;14.18;6.70;;;;;;;8.68;100.00;101300.03;6082195;19;20010;-75
2024/03/14 03:39:12;;;;;;;15.20;7.43;;;;;;;8.78;100.00;101306.75;6084665;19;20482;-74
2024/03/14 03:41:15;;;;;;;12.82;7.75;;;;;;;8.67;100.00;101298.31;6085762;19;20459;-75
2024/03/14 03:43:20;;;;;;;13.85;6.88;;;;;;;8.69;100.00;101303.50;6087826;19;20022;-74
2024/03/14 03:45:24;;;;;;;12.43;6.70;;;;;;;8.64;100.00;101308.03;6084915;19;20033;-75
2024/03/14 03:47:32;;;;;;;13.90;7.82;;;;;;;8.65;100.00;101310.59;6086006;19;20031;-75
2024/03/14 03:49:35;;;;;;;15.38;7.80;;;;;;;8.67;100.00;101303.56;6084543;19;20043;-75
2024/03/14 03:51:40;;;;;;;12.35;7.35;;;;;;;8.65;100.00;101300.13;6087219;19;19999;-75
2024/03/14 03:53:42;;;;;;;12.85;7.03;;;;;;;8.62;100.00;101299.34;6083686;19;20012;-74
2024/03/14 03:55:49;;;;;;;13.95;6.55;;;;;;;8.64;100.00;101295.78;6084574;19;20038;-74
2024/03/14 03:57:51;;;;;;;13.13;7.75;;;;;;;8.66;100.00;101294.00;6084308;19;20443;-75
2024/03/14 03:59:57;;;;;;;11.73;6.97;;;;;;;8.63;100.00;101287.94;6086251;19;20070;-74
2024/03/14 04:02:03;;;;;;;15.52;7.97;;;;;;;8.65;100.00;101292.25;6084407;19;20006;-75
2024/03/14 04:04:12;;;;;;;14.80;8.52;;;;;;;8.54;100.00;101297.75;6085873;19;20024;-75
2024/03/14 04:06:17;;;;;;;14.70;8.38;;;;;;;8.47;100.00;101296.19;6086463;19;20002;-75
2024/03/14 04:08:22;;;;;;;13.25;7.53;;;;;;;8.55;100.00;101290.75;6085066;19;20494;-75
2024/03/14 04:10:25;;;;;;;16.20;8.35;;;;;;;8.56;100.00;101289.88;6085325;19;20011;-75
2024/03/14 04:12:30;;;;;;;19.73;9.10;;;;;;;8.53;100.00;101284.69;6084175;19;20052;-75
2024/03/14 04:14:40;;;;;;;14.32;7.88;;;;;;;8.50;100.00;101288.25;6086751;19;20007;-75
2024/03/14 04:16:45;;;;;;;14.77;8.02;;;;;;;8.48;100.00;101294.44;6085064;19;20110;-75
2024/03/14 04:18:51;;;;;;;15.10;8.55;;;;;;;8.42;100.00;101291.97;6085077;19;20006;-75
2024/03/14 04:20:58;;;;;;;15.50;8.25;;;;;;;8.43;100.00;101293.69;6081739;19;20078;-75
2024/03/14 04:23:03;;;;;;;20.15;8.20;;;;;;;8.46;100.00;101293.63;6085942;19;20023;-73
2024/03/14 04:25:10;;;;;;;15.30;8.65;;;;;;;8.45;100.00;101297.13;6084566;19;20011;-73
2024/03/14 04:27:16;;;;;;;15.98;8.45;;;;;;;8.44;100.00;101291.03;6083919;19;20014;-76
2024/03/14 04:29:21;;;;;;;16.40;9.00;;;;;;;8.40;100.00;101296.38;6080366;19;20050;-74
2024/03/14 04:31:26;;;;;;;15.38;9.40;;;;;;;8.42;100.00;101289.34;6082991;19;20014;-73
2024/03/14 04:33:33;;;;;;;16.48;8.52;;;;;;;8.42;100.00;101290.19;6083638;19;20360;-75
2024/03/14 04:35:36;;;;;;;17.63;8.90;;;;;;;8.39;100.00;101292.88;6084649;19;20374;-74
2024/03/14 04:37:44;;;;;;;;;;;;;;;8.41;100.00;101293.72;6084934;19;20020;-74
2024/03/14 04:39:51;;;;;;;17.38;9.07;;;;;;;8.38;100.00;101287.69;6085694;19;20404;-75
2024/03/14 04:41:56;;;;;;;18.17;9.50;;;;;;;8.35;100.00;101288.59;6085943;19;20010;-74
2024/03/14 04:44:03;;;;;;;20.35;10.95;;;;;;;8.29;100.00;101271.28;6086125;19;20021;-75
2024/03/14 04:46:09;;;;;;;21.17;10.57;;;;;;;8.24;100.00;101281.00;6084373;19;20619;-75
2024/03/14 04:48:16;;;;;;;21.02;11.38;;;;;;;8.31;100.00;101274.72;6091823;19;20006;-74
2024/03/14 04:50:19;;;;;;;18.90;11.05;;;;;;;8.26;100.00;101279.19;6088995;19;20007;-75
2024/03/14 04:52:27;;;;;;;20.52;10.55;;;;;;;8.33;100.00;101272.91;6090040;19;20379;-75
2024/03/14 04:54:37;;;;;;;22.88;11.20;;;;;;;8.37;100.00;101276.31;6092367;19;20007;-74
2024/03/14 04:56:42;;;;;;;24.55;12.15;;;;;;;8.36;100.00;101272.84;6092923;19;20562;-76
2024/03/14 04:58:47;;;;;;;24.38;11.88;;;;;;;8.34;100.00;101279.88;6092909;19;20004;-75
2024/03/14 05:00:52;;;;;;;21.10;10.70;;;;;;;8.41;100.00;101279.78;6091965;19;20006;-75
2024/03/14 05:02:58;;;;;;;25.40;13.07;;;;;;;8.35;100.00;101286.00;6091540;19;20677;-74
2024/03/14 05:05:04;;;;;;;22.17;11.63;;;;;;;8.30;100.00;101278.25;6093209;19;20407;-75
2024/03/14 05:07:07;;;;;;;23.55;10.45;;;;;;;8.36;100.00;101280.69;6094913;19;20014;-75
2024/03/14 05:09:12;;;;;;;24.63;12.65;;;;;;;8.33;100.00;101270.31;6094622;19;20010;-75
2024/03/14 05:11:21;;;;;;;23.52;12.93;;;;;;;8.34;100.00;101269.41;6094500;19;20055;-75
2024/03/14 05:13:26;;;;;;;20.73;11.57;;;;;;;8.31;100.00;101263.38;6093041;19;20052;-76
2024/03/14 05:15:33;;;;;;;19.48;11.18;;;;;;;8.24;100.00;101270.53;6091974;19;20167;-75
2024/03/14 05:17:41;;;;;;;25.75;12.95;;;;;;;8.24;100.00;101265.31;6092104;19;20025;-75
2024/03/14 05:19:47;;;;;;;21.80;12.10;;;;;;;8.26;100.00;101276.56;6087161;19;20010;-74
2024/03/14 05:21:52;;;;;;;21.45;10.98;;;;;;;8.26;100.00;101278.34;6088949;19;20490;-75
2024/03/14 05:23:58;;;;;;;24.15;12.48;;;;;;;8.20;100.00;101271.50;6089603;19;20434;-73
2024/03/14 05:26:03;;;;;;;22.88;11.73;;;;;;;8.27;100.00;101278.31;6093778;19;20047;-75
2024/03/14 05:28:08;;;;;;;25.00;12.02;;;;;;;8.28;100.00;101274.78;6090117;19;20367;-74
2024/03/14 05:30:17;;;;;;;27.73;12.70;;;;;;;8.21;100.00;101269.72;6090370;19;20055;-73
2024/03/14 05:32:27;;;;;;;22.35;12.70;;;;;;;8.25;100.00;101274.88;6088769;19;20010;-74
2024/03/14 05:34:33;;;;;;;21.75;12.23;;;;;;;8.14;100.00;101274.28;6090366;19;20028;-74
2024/03/14 05:36:38;;;;;;;23.38;11.93;;;;;;;8.21;100.00;101286.28;6091803;19;19998;-75
2024/03/14 05:38:43;;;;;;;24.45;13.23;;;;;;;8.19;100.00;101279.38;6087750;19;20103;-73
2024/03/14 05:40:48;;;;;;;23.60;12.57;;;;;;;8.06;100.00;101282.31;6090151;19;20006;-75
2024/03/14 05:42:53;;;;;;;23.27;12.63;;;;;;;8.16;100.00;101282.94;6090537;19;20463;-76
2024/03/14 05:45:02;;;;;;;26.95;11.82;;;;;;;8.12;100.00;101279.53;6087170;19;20015;-74
2024/03/14 05:47:05;;;;;;;26.05;12.60;;;;;;;8.10;100.00;101267.38;6086715;19;20060;-74
2024/03/14 05:49:11;;;;;;;22.42;13.23;;;;;;;8.12;100.00;101273.44;6087740;19;20433;-74
2024/03/14 05:51:18;;;;;;;23.42;12.40;;;;;;;8.02;100.00;101279.78;6088998;19;20028;-74
2024/03/14 05:53:26;;;;;;;24.05;11.75;;;;;;;8.09;100.00;101277.00;6086846;19;20011;-73
2024/03/14 05:55:34;;;;;;;25.10;13.13;;;;;;;8.07;100.00;101280.53;6090247;19;20030;-73
2024/03/14 05:57:39;;;;;;;27.95;13.05;;;;;;;8.08;100.00;101275.28;6087190;19;20006;-73
2024/03/14 05:59:45;;;;;;;22.50;11.23;;;;;;;8.06;100.00;101276.22;6086751;19;20010;-74
2024/03/14 06:01:56;;;;;;;23.77;11.88;;;;;;;8.08;100.00;101277.00;6088031;19;20006;-73
2024/03/14 06:04:01;;;;;;;26.20;12.98;;;;;;;8.04;100.00;101284.09;6088293;19;20474;-75
2024/03/14 06:06:07;;;;;;;24.85;12.88;;;;;;;7.99;100.00;101272.00;6088094;19;20011;-75
2024/03/14 06:08:13;;;;;;;26.35;12.90;;;;;;;8.05;100.00;101284.94;6089215;19;20010;-73
2024/03/14 06:10:18;;;;;;;30.63;12.85;;;;;;;8.01;100.00;101275.44;6088508;19;20011;-76
2024/03/14 06:12:24;;;;;;;21.05;11.57;;;;;;;8.03;100.00;101278.88;6089261;19;20344;-77
2024/03/14 06:14:27;;;;;;;24.77;14.05;;;;;;;8.03;100.00;101268.41;6086910;19;20109;-76
2024/03/14 06:16:32;;;;;;;25.00;13.15;;;;;;;8.04;100.00;101273.63;6088680;19;20034;-75
2024/03/14 06:18:40;;;;;;;20.95;11.50;;;;;;;8.04;100.00;101270.13;6088887;19;19999;-74
2024/03/14 06:20:44;;;;;;;25.40;12.30;;;;;;;8.08;100.00;101266.53;6088778;19;20491;-74
2024/03/14 06:22:49;;;;;;;21.02;11.88;;;;;;;8.07;100.00;101270.91;6086718;19;20002;-74
2024/03/14 06:24:59;;;;;;;21.77;12.32;;;;;;;8.03;100.00;101266.66;6085717;19;20014;-74
2024/03/14 06:27:02;;;;;;;25.17;12.48;;;;;;;8.06;100.00;101261.34;6087521;19;20536;-74
2024/03/14 06:29:07;;;;;;;23.70;11.73;;;;;;;8.14;100.00;101258.56;6082617;19;20024;-73
2024/03/14 06:31:12;;;;;;;26.45;11.98;;;;;;;8.15;100.00;101262.91;6087522;19;20007;-74
2024/03/14 06:33:19;;;;;;;25.65;12.35;;;;;;;8.16;100.00;101259.38;6084487;19;20014;-74
2024/03/14 06:35:26;;;;;;;24.27;11.88;;;;;;;8.12;100.00;101257.72;6087986;19;20029;-73
2024/03/14 06:37:29;;;;;;;25.10;11.55;;;;;;;8.16;100.00;101256.75;6088192;19;20955;-76
2024/03/14 06:39:35;;;;;;;25.10;11.35;;;;;;;8.19;100.00;101261.06;6088087;19;20018;-76
2024/03/14 06:41:43;;;;;;;22.92;11.77;;;;;;;8.26;100.00;101265.25;6087535;19;20545;-77
2024/03/14 06:43:48;;;;;;;24.42;12.05;;;;;;;8.28;100.00;101264.31;6087109;19;20282;-76
2024/03/14 06:45:53;;;;;;;25.63;12.18;;;;;;;8.29;100.00;101258.19;6089339;19;20010;-76
2024/03/14 06:47:59;;;;;;;24.42;14.52;;;;;;;8.30;100.00;101264.28;6086134;19;20034;-75
2024/03/14 06:50:04;;;;;;;23.58;11.85;;;;;;;8.30;100.00;101266.91;6085290;19;20011;-73
2024/03/14 06:52:09;;;;;;;24.65;11.55;;;;;;;8.36;100.00;101267.59;6085269;19;20014;-75
2024/03/14 06:54:18;;;;;;;21.95;11.50;;;;;;;8.41;100.00;101258.81;6083462;19;20618;-75
2024/03/14 06:56:24;;;;;;;22.85;12.50;;;;;;;8.39;100.00;101271.06;6088236;19;20015;-74
2024/03/14 06:58:29;;;;;;;27.55;12.15;;;;;;;8.39;100.00;101255.34;6089760;19;20341;-75
2024/03/14 07:00:31;;;;;;;24.60;12.65;;;;;;;8.44;100.00;101263.97;6089746;19;20573;-75
2024/03/14 07:02:40;;;;;;;27.17;12.45;;;;;;;8.45;100.00;101256.09;6086590;19;20038;-76
2024/03/14 07:04:47;;;;;;;23.20;11.85;;;;;;;8.52;100.00;101260.25;6088839;19;20010;-75
2024/03/14 07:06:53;;;;;;;27.38;11.85;;;;;;;8.58;100.00;101256.63;6090227;19;20085;-75
2024/03/14 07:09:01;;;;;;;22.65;11.50;;;;;;;8.59;100.00;101255.75;6088738;19;20011;-75
2024/03/14 07:11:07;;;;;;;21.30;11.60;;;;;;;8.62;100.00;101262.66;6088428;19;20014;-73
2024/03/14 07:13:13;;;;;;;27.73;12.07;;;;;;;8.64;100.00;101251.25;6086258;19;20045;-74
2024/03/14 07:15:18;;;;;;;20.58;11.10;;;;;;;8.67;100.00;101250.31;6083691;19;19999;-76
2024/03/14 07:17:27;;;;;;;23.60;11.68;;;;;;;8.71;100.00;101258.03;6086279;19;20006;-74
2024/03/14 07:19:35;;;;;;;24.33;11.75;;;;;;;8.75;100.00;101253.59;6085489;19;20315;-74
2024/03/14 07:21:41;;;;;;;26.20;11.25;;;;;;;8.76;100.00;101263.16;6087095;19;20596;-76
2024/03/14 07:23:48;;;;;;;23.63;11.13;;;;;;;8.80;100.00;101262.19;6085996;19;20011;-76
2024/03/14 07:25:56;;;;;;;21.55;12.18;;;;;;;8.85;100.00;101262.06;6087302;19;20015;-75
2024/03/14 07:28:01;;;;;;;20.88;10.63;;;;;;;8.89;100.00;101261.94;6085650;19;20609;-76
2024/03/14 07:30:13;;;;;;;20.85;11.68;;;;;;;8.94;100.00;101259.19;6085725;19;20546;-75
2024/03/14 07:32:19;;;;;;;20.95;10.23;;;;;;;8.97;100.00;101253.84;6083954;19;20484;-76
2024/03/14 07:34:25;;;;;;;18.98;10.30;;;;;;;9.04;100.00;101252.78;6086022;19;20010;-74
2024/03/14 07:36:30;;;;;;;19.70;10.73;;;;;;;9.06;100.00;101253.63;6085682;19;20003;-74
2024/03/14 07:38:36;;;;;;;21.88;10.40;;;;;;;9.09;100.00;101253.53;6088106;19;20014;-76
2024/03/14 07:40:43;;;;;;;20.13;10.48;;;;;;;9.16;100.00;101255.09;6085606;19;20026;-76
2024/03/14 07:42:50;;;;;;;19.35;10.05;;;;;;;9.20;100.00;101256.72;6086559;19;20495;-75
2024/03/14 07:44:54;;;;;;;19.70;10.93;;;;;;;9.35;100.00;101255.41;6087307;19;20363;-76
2024/03/14 07:46:59;;;;;;;24.88;11.90;;;;;;;9.42;100.00;101253.47;6086205;19;20038;-77
2024/03/14 07:49:09;;;;;;;19.65;10.25;;;;;;;9.58;100.00;101246.84;6086208;19;20010;-76
2024/03/14 07:51:14;;;;;;;16.73;8.40;;;;;;;9.73;100.00;101244.69;6082730;19;20077;-76
2024/03/14 07:53:21;;;;;;;24.00;9.50;;;;;;;9.88;100.00;101239.81;6085327;19;20010;-76
2024/03/14 07:55:26;;;;;;;16.35;9.15;;;;;;;10.04;100.00;101245.47;6088230;19;20030;-76
2024/03/14 07:57:35;;;;;;;18.05;9.80;;;;;;;10.11;100.00;101247.00;6088115;19;20393;-74
2024/03/14 07:59:43;;;;;;;15.55;9.43;;;;;;;10.29;100.00;101242.06;6087136;19;20595;-77
2024/03/14 08:01:50;;;;;;;19.40;10.48;;;;;;;10.59;100.00;101239.34;6086962;19;20003;-73
2024/03/14 08:03:57;;;;;;;17.52;10.32;;;;;;;10.82;100.00;101236.78;6085056;19;20018;-75
2024/03/14 08:06:03;;;;;;;18.52;8.45;;;;;;;10.87;100.00;101236.59;6085730;19;20014;-75
2024/03/14 08:08:10;;;;;;;17.08;8.98;;;;;;;11.05;100.00;101235.06;6084808;19;20530;-76
2024/03/14 08:10:28;;;;;;;21.30;9.52;;;;;;;11.33;100.00;101245.47;6086110;19;20514;-74
2024/03/14 08:12:34;;;;;;;14.05;7.88;;;;;;;11.46;100.00;101240.59;6086516;19;20006;-77
2024/03/14 08:14:37;;;;;;;15.57;8.38;;;;;;;11.41;100.00;101239.00;6087592;19;20002;-75
2024/03/14 08:16:46;;;;;;;14.77;8.60;;;;;;;11.48;100.00;101244.00;6088435;19;20019;-74
2024/03/14 08:18:51;;;;;;;15.30;7.43;;;;;;;11.76;100.00;101244.66;6087915;19;20319;-77
2024/03/14 08:20:58;;;;;;;15.48;8.55;;;;;;;12.00;100.00;101242.88;6087233;19;20492;-76
2024/03/14 08:23:04;;;;;;;17.80;7.88;;;;;;;11.91;100.00;101235.34;6092352;19;20384;-77
2024/03/14 08:25:15;;;;;;;12.50;6.95;;;;;;;11.82;100.00;101244.44;6094414;19;20033;-75
2024/03/14 08:27:19;;;;;;;10.50;6.32;;;;;;;11.95;100.00;101243.97;6089046;19;20090;-76
2024/03/14 08:29:25;;;;;;;13.60;7.68;;;;;;;12.20;100.00;101235.97;6092997;19;20046;-76
2024/03/14 08:31:30;;;;;;;15.50;7.35;;;;;;;12.24;100.00;101245.44;6091358;19;20027;-75
2024/03/14 08:33:40;;;;;;;11.32;7.15;;;;;;;12.32;100.00;101229.31;6091890;19;20006;-75
2024/03/14 08:35:43;;;;;;;11.95;6.60;;;;;;;12.44;100.00;101234.94;6088971;19;20034;-75
2024/03/14 08:37:48;;;;;;;13.32;5.85;;;;;;;12.16;100.00;101231.72;6092028;19;20715;-75
2024/03/14 08:39:54;;;;;;;13.00;6.82;;;;;;;12.29;100.00;101225.88;6086696;19;20017;-77
2024/03/14 08:41:59;;;;;;;12.07;6.50;;;;;;;12.19;100.00;101236.88;6091513;19;20007;-77
2024/03/14 08:44:05;;;;;;;10.77;6.40;;;;;;;12.72;100.00;101231.13;6090509;19;20007;-77
2024/03/14 08:46:10;;;;;;;10.82;6.15;;;;;;;12.67;100.00;101230.47;6088894;19;20498;-74
2024/03/14 08:48:15;;;;;;;11.07;5.95;;;;;;;12.65;100.00;101222.63;6088710;19;20652;-75
2024/03/14 08:50:26;;;;;;;9.82;5.97;;;;;;;12.76;100.00;101226.59;6086603;19;20002;-75
2024/03/14 08:52:32;;;;;;;14.20;6.40;;;;;;;12.88;100.00;101224.25;6086383;19;20037;-75
2024/03/14 08:54:44;;;;;;;9.90;5.70;;;;;;;12.84;100.00;101225.31;6090660;19;20031;-75
2024/03/14 08:56:47;;;;;;;10.73;5.43;;;;;;;12.81;100.00;101219.31;6090197;19;20440;-75
2024/03/14 08:58:56;;;;;;;9.18;5.68;;;;;;;12.82;100.00;101221.03;6085529;19;20351;-75
2024/03/14 09:01:03;;;;;;;11.40;5.95;;;;;;;13.23;100.00;101220.97;6088888;19;20086;-75
2024/03/14 09:03:08;;;;;;;11.40;5.53;;;;;;;13.18;100.00;101229.94;6087133;19;20006;-75
2024/03/14 09:05:14;;;;;;;11.95;5.78;;;;;;;13.25;100.00;101227.06;6088008;19;20509;-74
2024/03/14 09:07:21;;;;;;;11.27;5.57;;;;;;;13.27;100.00;101222.56;6086823;19;20061;-75
2024/03/14 09:09:27;;;;;;;10.63;5.50;;;;;;;13.26;100.00;101221.72;6085969;19;20010;-75
2024/03/14 09:11:33;;;;;;;9.75;5.40;;;;;;;13.28;100.00;101225.16;6088781;19;20180;-76
2024/03/14 09:13:38;;;;;;;10.70;5.25;;;;;;;13.58;100.00;101224.66;6090158;19;20546;-76
2024/03/14 09:15:43;;;;;;;9.60;5.32;;;;;;;13.46;100.00;101215.53;6090033;19;20030;-75
2024/03/14 09:17:46;;;;;;;9.20;4.93;;;;;;;13.49;100.00;101215.38;6086760;19;20018;-75
2024/03/14 09:19:51;;;;;;;9.30;5.05;;;;;;;13.57;100.00;101223.81;6087890;19;20944;-74
2024/03/14 09:21:54;;;;;;;8.50;4.78;;;;;;;13.58;100.00;101211.44;6088331;19;20022;-75
2024/03/14 09:24:01;;;;;;;8.57;4.53;;;;;;;13.55;100.00;101216.88;6085263;19;20078;-75
2024/03/14 09:26:07;;;;;;;8.63;4.78;;;;;;;13.67;100.00;101221.59;6087458;19;20093;-76
2024/03/14 09:28:12;;;;;;;8.68;4.82;;;;;;;13.80;100.00;101211.31;6089961;19;20014;-76
2024/03/14 09:30:18;;;;;;;9.30;4.72;;;;;;;13.92;100.00;101209.84;6087951;19;20018;-76
2024/03/14 09:32:23;;;;;;;9.55;5.07;;;;;;;14.16;100.00;101205.97;6087847;19;20014;-77
2024/03/14 09:34:29;;;;;;;7.97;4.53;;;;;;;14.35;100.00;101205.94;6082886;19;20010;-74
2024/03/14 09:36:37;;;;;;;8.70;4.38;;;;;;;14.21;100.00;101201.31;6086656;19;20362;-74